sensor_id;sensor_type;location;lat;lon;timestamp;temperature;humidity
76102;SHT30;64830;46.910;6.354;2023-04-24T00:00:13;8.46;80.51
76102;SHT30;64830;46.910;6.354;2023-04-24T00:02:40;8.44;80.40
76102;SHT30;64830;46.910;6.354;2023-04-24T00:05:06;8.45;80.56
76102;SHT30;64830;46.910;6.354;2023-04-24T00:07:32;8.46;80.48
76102;SHT30;64830;46.910;6.354;2023-04-24T00:09:58;8.48;80.33
76102;SHT30;64830;46.910;6.354;2023-04-24T00:12:24;8.52;80.03
76102;SHT30;64830;46.910;6.354;2023-04-24T00:14:50;8.55;79.89
76102;SHT30;64830;46.910;6.354;2023-04-24T00:17:15;8.58;80.79
76102;SHT30;64830;46.910;6.354;2023-04-24T00:19:41;8.58;80.27
76102;SHT30;64830;46.910;6.354;2023-04-24T00:22:07;8.60;80.29
76102;SHT30;64830;46.910;6.354;2023-04-24T00:24:32;8.60;80.14
76102;SHT30;64830;46.910;6.354;2023-04-24T00:26:58;8.63;80.14
76102;SHT30;64830;46.910;6.354;2023-04-24T00:29:23;8.66;80.05
76102;SHT30;64830;46.910;6.354;2023-04-24T00:31:49;8.67;80.07
76102;SHT30;64830;46.910;6.354;2023-04-24T00:34:14;8.69;80.39
76102;SHT30;64830;46.910;6.354;2023-04-24T00:36:39;8.69;80.19
76102;SHT30;64830;46.910;6.354;2023-04-24T00:39:05;8.70;80.63
76102;SHT30;64830;46.910;6.354;2023-04-24T00:41:33;8.69;80.48
76102;SHT30;64830;46.910;6.354;2023-04-24T00:43:59;8.69;80.82
76102;SHT30;64830;46.910;6.354;2023-04-24T00:46:24;8.67;80.85
76102;SHT30;64830;46.910;6.354;2023-04-24T00:48:50;8.67;80.92
76102;SHT30;64830;46.910;6.354;2023-04-24T00:51:15;8.66;81.32
76102;SHT30;64830;46.910;6.354;2023-04-24T00:53:41;8.60;82.37
76102;SHT30;64830;46.910;6.354;2023-04-24T00:56:06;8.53;81.95
76102;SHT30;64830;46.910;6.354;2023-04-24T00:58:32;8.49;82.69
76102;SHT30;64830;46.910;6.354;2023-04-24T01:00:58;8.45;82.69
76102;SHT30;64830;46.910;6.354;2023-04-24T01:03:29;8.44;82.42
76102;SHT30;64830;46.910;6.354;2023-04-24T01:05:56;8.39;83.00
76102;SHT30;64830;46.910;6.354;2023-04-24T01:08:24;8.39;82.64
76102;SHT30;64830;46.910;6.354;2023-04-24T01:10:53;8.41;82.49
76102;SHT30;64830;46.910;6.354;2023-04-24T01:13:19;8.44;82.86
76102;SHT30;64830;46.910;6.354;2023-04-24T01:15:46;8.44;82.45
76102;SHT30;64830;46.910;6.354;2023-04-24T01:18:12;8.45;83.36
76102;SHT30;64830;46.910;6.354;2023-04-24T01:20:39;8.42;83.11
76102;SHT30;64830;46.910;6.354;2023-04-24T01:23:06;8.41;83.00
76102;SHT30;64830;46.910;6.354;2023-04-24T01:25:32;8.39;83.11
76102;SHT30;64830;46.910;6.354;2023-04-24T01:27:58;8.39;83.11
76102;SHT30;64830;46.910;6.354;2023-04-24T01:30:23;8.44;83.10
76102;SHT30;64830;46.910;6.354;2023-04-24T01:32:49;8.46;83.59
76102;SHT30;64830;46.910;6.354;2023-04-24T01:35:15;8.46;83.19
76102;SHT30;64830;46.910;6.354;2023-04-24T01:37:40;8.46;83.27
76102;SHT30;64830;46.910;6.354;2023-04-24T01:40:06;8.48;83.11
76102;SHT30;64830;46.910;6.354;2023-04-24T01:42:32;8.49;83.41
76102;SHT30;64830;46.910;6.354;2023-04-24T01:44:59;8.49;83.10
76102;SHT30;64830;46.910;6.354;2023-04-24T01:47:25;8.52;83.46
76102;SHT30;64830;46.910;6.354;2023-04-24T01:49:50;8.53;83.27
76102;SHT30;64830;46.910;6.354;2023-04-24T01:52:16;8.50;84.15
76102;SHT30;64830;46.910;6.354;2023-04-24T01:54:44;8.46;84.23
76102;SHT30;64830;46.910;6.354;2023-04-24T01:57:10;8.39;84.01
76102;SHT30;64830;46.910;6.354;2023-04-24T01:59:36;8.39;84.83
76102;SHT30;64830;46.910;6.354;2023-04-24T02:02:04;8.38;84.55
76102;SHT30;64830;46.910;6.354;2023-04-24T02:04:30;8.41;84.49
76102;SHT30;64830;46.910;6.354;2023-04-24T02:06:55;8.37;85.44
76102;SHT30;64830;46.910;6.354;2023-04-24T02:09:20;8.35;85.18
76102;SHT30;64830;46.910;6.354;2023-04-24T02:11:46;8.32;85.90
76102;SHT30;64830;46.910;6.354;2023-04-24T02:14:11;8.30;85.81
76102;SHT30;64830;46.910;6.354;2023-04-24T02:16:37;8.25;86.32
76102;SHT30;64830;46.910;6.354;2023-04-24T02:19:03;8.22;86.04
76102;SHT30;64830;46.910;6.354;2023-04-24T02:21:28;8.17;86.31
76102;SHT30;64830;46.910;6.354;2023-04-24T02:23:56;8.15;86.10
76102;SHT30;64830;46.910;6.354;2023-04-24T02:26:21;8.11;85.76
76102;SHT30;64830;46.910;6.354;2023-04-24T02:28:47;8.14;85.57
76102;SHT30;64830;46.910;6.354;2023-04-24T02:31:12;8.08;85.06
76102;SHT30;64830;46.910;6.354;2023-04-24T02:33:37;8.08;84.80
76102;SHT30;64830;46.910;6.354;2023-04-24T02:36:03;8.08;85.03
76102;SHT30;64830;46.910;6.354;2023-04-24T02:38:29;8.04;84.95
76102;SHT30;64830;46.910;6.354;2023-04-24T02:40:54;8.10;85.18
76102;SHT30;64830;46.910;6.354;2023-04-24T02:43:20;8.08;85.15
76102;SHT30;64830;46.910;6.354;2023-04-24T02:45:46;8.05;85.04
76102;SHT30;64830;46.910;6.354;2023-04-24T02:48:11;8.07;85.12
76102;SHT30;64830;46.910;6.354;2023-04-24T02:50:36;8.07;85.03
76102;SHT30;64830;46.910;6.354;2023-04-24T02:53:02;8.14;84.77
76102;SHT30;64830;46.910;6.354;2023-04-24T02:55:27;8.10;84.85
76102;SHT30;64830;46.910;6.354;2023-04-24T02:57:53;8.13;84.29
76102;SHT30;64830;46.910;6.354;2023-04-24T03:00:18;8.13;84.14
76102;SHT30;64830;46.910;6.354;2023-04-24T03:02:45;8.10;84.19
76102;SHT30;64830;46.910;6.354;2023-04-24T03:05:10;8.13;84.45
76102;SHT30;64830;46.910;6.354;2023-04-24T03:07:37;8.10;84.35
76102;SHT30;64830;46.910;6.354;2023-04-24T03:10:03;8.07;84.02
76102;SHT30;64830;46.910;6.354;2023-04-24T03:12:29;8.04;83.69
76102;SHT30;64830;46.910;6.354;2023-04-24T03:14:54;8.04;83.79
76102;SHT30;64830;46.910;6.354;2023-04-24T03:17:20;8.04;83.70
76102;SHT30;64830;46.910;6.354;2023-04-24T03:19:45;8.05;84.01
76102;SHT30;64830;46.910;6.354;2023-04-24T03:22:10;8.08;83.89
76102;SHT30;64830;46.910;6.354;2023-04-24T03:24:36;8.11;83.92
76102;SHT30;64830;46.910;6.354;2023-04-24T03:27:01;8.07;83.99
76102;SHT30;64830;46.910;6.354;2023-04-24T03:29:27;8.03;84.09
76102;SHT30;64830;46.910;6.354;2023-04-24T03:31:52;8.01;84.05
76102;SHT30;64830;46.910;6.354;2023-04-24T03:34:17;8.01;84.21
76102;SHT30;64830;46.910;6.354;2023-04-24T03:36:43;8.00;83.97
76102;SHT30;64830;46.910;6.354;2023-04-24T03:39:08;7.98;83.43
76102;SHT30;64830;46.910;6.354;2023-04-24T03:41:34;7.98;83.71
76102;SHT30;64830;46.910;6.354;2023-04-24T03:43:59;7.97;83.82
76102;SHT30;64830;46.910;6.354;2023-04-24T03:46:25;8.00;83.79
76102;SHT30;64830;46.910;6.354;2023-04-24T03:48:50;7.98;83.81
76102;SHT30;64830;46.910;6.354;2023-04-24T03:51:16;8.01;83.68
76102;SHT30;64830;46.910;6.354;2023-04-24T03:53:41;8.01;83.83
76102;SHT30;64830;46.910;6.354;2023-04-24T03:56:06;8.01;83.39
76102;SHT30;64830;46.910;6.354;2023-04-24T03:58:32;8.01;83.40
76102;SHT30;64830;46.910;6.354;2023-04-24T04:00:58;8.03;83.24
76102;SHT30;64830;46.910;6.354;2023-04-24T04:03:23;8.03;83.19
76102;SHT30;64830;46.910;6.354;2023-04-24T04:05:50;8.03;83.13
76102;SHT30;64830;46.910;6.354;2023-04-24T04:08:16;8.05;83.19
76102;SHT30;64830;46.910;6.354;2023-04-24T04:10:41;8.07;83.09
76102;SHT30;64830;46.910;6.354;2023-04-24T04:13:06;8.05;82.81
76102;SHT30;64830;46.910;6.354;2023-04-24T04:15:32;8.07;82.98
76102;SHT30;64830;46.910;6.354;2023-04-24T04:17:57;8.07;82.75
76102;SHT30;64830;46.910;6.354;2023-04-24T04:20:23;8.07;82.76
76102;SHT30;64830;46.910;6.354;2023-04-24T04:22:48;8.04;82.48
76102;SHT30;64830;46.910;6.354;2023-04-24T04:25:13;8.00;82.67
76102;SHT30;64830;46.910;6.354;2023-04-24T04:27:39;7.97;82.89
76102;SHT30;64830;46.910;6.354;2023-04-24T04:30:07;7.96;82.51
76102;SHT30;64830;46.910;6.354;2023-04-24T04:32:34;7.90;82.58
76102;SHT30;64830;46.910;6.354;2023-04-24T04:35:00;7.85;82.76
76102;SHT30;64830;46.910;6.354;2023-04-24T04:37:29;7.80;82.84
76102;SHT30;64830;46.910;6.354;2023-04-24T04:39:55;7.76;83.13
76102;SHT30;64830;46.910;6.354;2023-04-24T04:42:20;7.79;83.13
76102;SHT30;64830;46.910;6.354;2023-04-24T04:44:46;7.69;83.40
76102;SHT30;64830;46.910;6.354;2023-04-24T04:47:11;7.70;83.37
76102;SHT30;64830;46.910;6.354;2023-04-24T04:49:38;7.72;83.32
76102;SHT30;64830;46.910;6.354;2023-04-24T04:52:03;7.75;83.16
76102;SHT30;64830;46.910;6.354;2023-04-24T04:54:29;7.75;83.03
76102;SHT30;64830;46.910;6.354;2023-04-24T04:56:54;7.76;82.91
76102;SHT30;64830;46.910;6.354;2023-04-24T04:59:20;7.79;82.96
76102;SHT30;64830;46.910;6.354;2023-04-24T05:01:46;7.79;82.96
76102;SHT30;64830;46.910;6.354;2023-04-24T05:04:11;7.76;83.02
76102;SHT30;64830;46.910;6.354;2023-04-24T05:06:37;7.73;83.22
76102;SHT30;64830;46.910;6.354;2023-04-24T05:09:02;7.75;83.27
76102;SHT30;64830;46.910;6.354;2023-04-24T05:11:28;7.69;83.40
76102;SHT30;64830;46.910;6.354;2023-04-24T05:13:54;7.69;83.68
76102;SHT30;64830;46.910;6.354;2023-04-24T05:16:20;7.66;83.80
76102;SHT30;64830;46.910;6.354;2023-04-24T05:18:45;7.68;83.65
76102;SHT30;64830;46.910;6.354;2023-04-24T05:21:11;7.69;83.53
76102;SHT30;64830;46.910;6.354;2023-04-24T05:23:36;7.63;83.77
76102;SHT30;64830;46.910;6.354;2023-04-24T05:26:02;7.65;83.70
76102;SHT30;64830;46.910;6.354;2023-04-24T05:28:27;7.68;83.61
76102;SHT30;64830;46.910;6.354;2023-04-24T05:30:55;7.68;83.68
76102;SHT30;64830;46.910;6.354;2023-04-24T05:33:21;7.69;83.65
76102;SHT30;64830;46.910;6.354;2023-04-24T05:35:47;7.66;82.44
76102;SHT30;64830;46.910;6.354;2023-04-24T05:38:13;7.65;82.42
76102;SHT30;64830;46.910;6.354;2023-04-24T05:40:39;7.62;82.36
76102;SHT30;64830;46.910;6.354;2023-04-24T05:43:05;7.61;82.58
76102;SHT30;64830;46.910;6.354;2023-04-24T05:45:30;7.61;82.69
76102;SHT30;64830;46.910;6.354;2023-04-24T05:47:56;7.61;82.84
76102;SHT30;64830;46.910;6.354;2023-04-24T05:50:22;7.65;82.72
76102;SHT30;64830;46.910;6.354;2023-04-24T05:52:47;7.61;82.69
76102;SHT30;64830;46.910;6.354;2023-04-24T05:55:13;7.62;82.71
76102;SHT30;64830;46.910;6.354;2023-04-24T05:57:38;7.65;82.74
76102;SHT30;64830;46.910;6.354;2023-04-24T06:00:05;7.63;82.48
76102;SHT30;64830;46.910;6.354;2023-04-24T06:02:31;7.66;82.65
76102;SHT30;64830;46.910;6.354;2023-04-24T06:04:58;7.72;81.88
76102;SHT30;64830;46.910;6.354;2023-04-24T06:07:25;7.72;82.20
76102;SHT30;64830;46.910;6.354;2023-04-24T06:09:51;7.75;82.18
76102;SHT30;64830;46.910;6.354;2023-04-24T06:12:17;7.75;81.54
76102;SHT30;64830;46.910;6.354;2023-04-24T06:14:42;7.70;81.65
76102;SHT30;64830;46.910;6.354;2023-04-24T06:17:08;7.70;81.64
76102;SHT30;64830;46.910;6.354;2023-04-24T06:19:33;7.65;82.22
76102;SHT30;64830;46.910;6.354;2023-04-24T06:21:59;7.69;82.19
76102;SHT30;64830;46.910;6.354;2023-04-24T06:24:28;7.69;81.82
76102;SHT30;64830;46.910;6.354;2023-04-24T06:26:53;7.69;82.01
76102;SHT30;64830;46.910;6.354;2023-04-24T06:29:19;7.68;82.08
76102;SHT30;64830;46.910;6.354;2023-04-24T06:31:44;7.73;81.51
76102;SHT30;64830;46.910;6.354;2023-04-24T06:34:10;7.70;80.96
76102;SHT30;64830;46.910;6.354;2023-04-24T06:36:35;7.63;81.27
76102;SHT30;64830;46.910;6.354;2023-04-24T06:39:01;7.66;81.53
76102;SHT30;64830;46.910;6.354;2023-04-24T06:41:27;7.65;81.11
76102;SHT30;64830;46.910;6.354;2023-04-24T06:43:53;7.65;80.69
76102;SHT30;64830;46.910;6.354;2023-04-24T06:46:18;7.63;79.85
76102;SHT30;64830;46.910;6.354;2023-04-24T06:48:43;7.62;79.69
76102;SHT30;64830;46.910;6.354;2023-04-24T06:51:09;7.58;79.79
76102;SHT30;64830;46.910;6.354;2023-04-24T06:53:35;7.55;79.96
76102;SHT30;64830;46.910;6.354;2023-04-24T06:56:00;7.56;79.85
76102;SHT30;64830;46.910;6.354;2023-04-24T06:58:26;7.55;80.72
76102;SHT30;64830;46.910;6.354;2023-04-24T07:00:51;7.55;80.50
76102;SHT30;64830;46.910;6.354;2023-04-24T07:03:17;7.52;80.32
76102;SHT30;64830;46.910;6.354;2023-04-24T07:05:42;7.48;79.82
76102;SHT30;64830;46.910;6.354;2023-04-24T07:08:08;7.49;80.19
76102;SHT30;64830;46.910;6.354;2023-04-24T07:10:36;7.51;80.15
76102;SHT30;64830;46.910;6.354;2023-04-24T07:13:02;7.51;79.54
76102;SHT30;64830;46.910;6.354;2023-04-24T07:15:27;7.45;79.36
76102;SHT30;64830;46.910;6.354;2023-04-24T07:17:53;7.47;79.48
76102;SHT30;64830;46.910;6.354;2023-04-24T07:20:18;7.47;79.55
76102;SHT30;64830;46.910;6.354;2023-04-24T07:22:43;7.52;79.98
76102;SHT30;64830;46.910;6.354;2023-04-24T07:25:09;7.59;80.38
76102;SHT30;64830;46.910;6.354;2023-04-24T07:27:35;7.69;80.11
76102;SHT30;64830;46.910;6.354;2023-04-24T07:30:01;7.69;80.09
76102;SHT30;64830;46.910;6.354;2023-04-24T07:32:27;7.76;79.47
76102;SHT30;64830;46.910;6.354;2023-04-24T07:34:52;7.77;78.35
76102;SHT30;64830;46.910;6.354;2023-04-24T07:37:18;7.76;78.79
76102;SHT30;64830;46.910;6.354;2023-04-24T07:39:44;7.77;78.09
76102;SHT30;64830;46.910;6.354;2023-04-24T07:42:09;7.73;77.83
76102;SHT30;64830;46.910;6.354;2023-04-24T07:44:34;7.73;78.22
76102;SHT30;64830;46.910;6.354;2023-04-24T07:47:01;7.73;76.92
76102;SHT30;64830;46.910;6.354;2023-04-24T07:49:26;7.70;77.25
76102;SHT30;64830;46.910;6.354;2023-04-24T07:51:53;7.66;76.55
76102;SHT30;64830;46.910;6.354;2023-04-24T07:54:18;7.68;77.32
76102;SHT30;64830;46.910;6.354;2023-04-24T07:56:43;7.66;76.62
76102;SHT30;64830;46.910;6.354;2023-04-24T07:59:10;7.63;76.89
76102;SHT30;64830;46.910;6.354;2023-04-24T08:01:36;7.58;77.13
76102;SHT30;64830;46.910;6.354;2023-04-24T08:04:01;7.52;77.78
76102;SHT30;64830;46.910;6.354;2023-04-24T08:06:27;7.59;78.51
76102;SHT30;64830;46.910;6.354;2023-04-24T08:08:57;7.68;77.63
76102;SHT30;64830;46.910;6.354;2023-04-24T08:11:23;7.69;77.19
76102;SHT30;64830;46.910;6.354;2023-04-24T08:13:48;7.70;76.28
76102;SHT30;64830;46.910;6.354;2023-04-24T08:16:14;7.68;76.54
76102;SHT30;64830;46.910;6.354;2023-04-24T08:18:39;7.70;75.27
76102;SHT30;64830;46.910;6.354;2023-04-24T08:21:05;7.70;75.60
76102;SHT30;64830;46.910;6.354;2023-04-24T08:23:30;7.65;75.54
76102;SHT30;64830;46.910;6.354;2023-04-24T08:25:55;7.65;75.91
76102;SHT30;64830;46.910;6.354;2023-04-24T08:28:21;7.70;75.91
76102;SHT30;64830;46.910;6.354;2023-04-24T08:30:47;7.75;74.76
76102;SHT30;64830;46.910;6.354;2023-04-24T08:33:13;7.76;74.38
76102;SHT30;64830;46.910;6.354;2023-04-24T08:35:39;7.77;75.32
76102;SHT30;64830;46.910;6.354;2023-04-24T08:38:05;7.83;73.91
76102;SHT30;64830;46.910;6.354;2023-04-24T08:40:34;7.86;74.83
76102;SHT30;64830;46.910;6.354;2023-04-24T08:43:00;7.87;73.96
76102;SHT30;64830;46.910;6.354;2023-04-24T08:45:26;7.89;72.78
76102;SHT30;64830;46.910;6.354;2023-04-24T08:47:54;7.89;73.32
76102;SHT30;64830;46.910;6.354;2023-04-24T08:50:21;7.91;73.80
76102;SHT30;64830;46.910;6.354;2023-04-24T08:52:49;7.94;73.39
76102;SHT30;64830;46.910;6.354;2023-04-24T08:55:15;7.91;72.78
76102;SHT30;64830;46.910;6.354;2023-04-24T08:57:45;7.96;74.28
76102;SHT30;64830;46.910;6.354;2023-04-24T09:00:11;7.96;74.13
76102;SHT30;64830;46.910;6.354;2023-04-24T09:02:40;8.00;74.12
76102;SHT30;64830;46.910;6.354;2023-04-24T09:05:07;7.97;73.52
76102;SHT30;64830;46.910;6.354;2023-04-24T09:07:35;7.97;71.82
76102;SHT30;64830;46.910;6.354;2023-04-24T09:10:02;7.90;72.56
76102;SHT30;64830;46.910;6.354;2023-04-24T09:12:27;7.83;72.23
76102;SHT30;64830;46.910;6.354;2023-04-24T09:14:54;7.87;72.28
76102;SHT30;64830;46.910;6.354;2023-04-24T09:17:20;7.87;71.21
76102;SHT30;64830;46.910;6.354;2023-04-24T09:19:48;7.85;70.91
76102;SHT30;64830;46.910;6.354;2023-04-24T09:22:13;7.87;71.91
76102;SHT30;64830;46.910;6.354;2023-04-24T09:24:40;7.87;70.36
76102;SHT30;64830;46.910;6.354;2023-04-24T09:27:06;7.86;70.63
76102;SHT30;64830;46.910;6.354;2023-04-24T09:29:32;7.91;71.16
76102;SHT30;64830;46.910;6.354;2023-04-24T09:31:58;7.97;72.08
76102;SHT30;64830;46.910;6.354;2023-04-24T09:34:26;8.03;69.25
76102;SHT30;64830;46.910;6.354;2023-04-24T09:36:53;8.08;70.73
76102;SHT30;64830;46.910;6.354;2023-04-24T09:39:19;8.14;70.46
76102;SHT30;64830;46.910;6.354;2023-04-24T09:44:15;8.30;70.90
76102;SHT30;64830;46.910;6.354;2023-04-24T09:46:41;8.37;70.28
76102;SHT30;64830;46.910;6.354;2023-04-24T09:49:14;8.34;70.64
76102;SHT30;64830;46.910;6.354;2023-04-24T09:51:43;8.32;69.37
76102;SHT30;64830;46.910;6.354;2023-04-24T09:54:19;8.31;70.51
76102;SHT30;64830;46.910;6.354;2023-04-24T09:56:49;8.28;70.11
76102;SHT30;64830;46.910;6.354;2023-04-24T09:59:17;8.22;71.08
76102;SHT30;64830;46.910;6.354;2023-04-24T10:01:43;8.25;71.35
76102;SHT30;64830;46.910;6.354;2023-04-24T10:04:20;8.25;71.12
76102;SHT30;64830;46.910;6.354;2023-04-24T10:06:47;8.28;71.68
76102;SHT30;64830;46.910;6.354;2023-04-24T10:09:14;8.37;71.42
76102;SHT30;64830;46.910;6.354;2023-04-24T10:11:42;8.45;71.70
76102;SHT30;64830;46.910;6.354;2023-04-24T10:14:10;8.49;70.90
76102;SHT30;64830;46.910;6.354;2023-04-24T10:16:38;8.49;69.10
76102;SHT30;64830;46.910;6.354;2023-04-24T10:19:04;8.44;69.81
76102;SHT30;64830;46.910;6.354;2023-04-24T10:21:30;8.39;71.00
76102;SHT30;64830;46.910;6.354;2023-04-24T10:23:56;8.46;69.98
76102;SHT30;64830;46.910;6.354;2023-04-24T10:26:22;8.58;70.79
76102;SHT30;64830;46.910;6.354;2023-04-24T10:28:48;8.73;70.27
76102;SHT30;64830;46.910;6.354;2023-04-24T10:31:14;8.88;67.87
76102;SHT30;64830;46.910;6.354;2023-04-24T10:33:41;8.93;67.43
76102;SHT30;64830;46.910;6.354;2023-04-24T10:36:09;9.00;69.19
76102;SHT30;64830;46.910;6.354;2023-04-24T10:38:37;9.10;68.02
76102;SHT30;64830;46.910;6.354;2023-04-24T10:41:09;9.14;68.35
76102;SHT30;64830;46.910;6.354;2023-04-24T10:43:39;9.18;67.28
76102;SHT30;64830;46.910;6.354;2023-04-24T10:46:06;9.14;66.82
76102;SHT30;64830;46.910;6.354;2023-04-24T10:48:32;9.04;67.37
76102;SHT30;64830;46.910;6.354;2023-04-24T10:50:58;9.07;67.10
76102;SHT30;64830;46.910;6.354;2023-04-24T10:53:28;9.07;67.26
76102;SHT30;64830;46.910;6.354;2023-04-24T10:58:22;9.25;65.26
76102;SHT30;64830;46.910;6.354;2023-04-24T11:01:00;9.24;66.74
76102;SHT30;64830;46.910;6.354;2023-04-24T11:03:31;9.24;67.93
76102;SHT30;64830;46.910;6.354;2023-04-24T11:06:08;9.20;66.37
76102;SHT30;64830;46.910;6.354;2023-04-24T11:08:46;9.07;68.02
76102;SHT30;64830;46.910;6.354;2023-04-24T11:11:18;9.01;68.94
76102;SHT30;64830;46.910;6.354;2023-04-24T11:16:26;8.66;70.96
76102;SHT30;64830;46.910;6.354;2023-04-24T11:19:26;8.50;72.07
76102;SHT30;64830;46.910;6.354;2023-04-24T11:21:59;8.46;72.91
76102;SHT30;64830;46.910;6.354;2023-04-24T11:27:09;8.46;72.31
76102;SHT30;64830;46.910;6.354;2023-04-24T11:32:26;8.52;72.33
76102;SHT30;64830;46.910;6.354;2023-04-24T11:34:54;8.62;72.01
76102;SHT30;64830;46.910;6.354;2023-04-24T11:37:22;8.70;71.82
76102;SHT30;64830;46.910;6.354;2023-04-24T11:39:50;8.77;72.10
76102;SHT30;64830;46.910;6.354;2023-04-24T11:42:16;8.91;71.67
76102;SHT30;64830;46.910;6.354;2023-04-24T11:44:42;8.96;69.49
76102;SHT30;64830;46.910;6.354;2023-04-24T11:47:08;8.99;69.38
76102;SHT30;64830;46.910;6.354;2023-04-24T11:49:33;9.11;69.96
76102;SHT30;64830;46.910;6.354;2023-04-24T11:52:02;9.31;70.45
76102;SHT30;64830;46.910;6.354;2023-04-24T11:54:27;9.50;68.96
76102;SHT30;64830;46.910;6.354;2023-04-24T11:56:53;9.65;65.65
76102;SHT30;64830;46.910;6.354;2023-04-24T11:59:18;9.74;68.70
76102;SHT30;64830;46.910;6.354;2023-04-24T12:01:47;9.95;67.31
76102;SHT30;64830;46.910;6.354;2023-04-24T12:04:15;10.08;66.74
76102;SHT30;64830;46.910;6.354;2023-04-24T12:07:03;10.11;65.66
76102;SHT30;64830;46.910;6.354;2023-04-24T12:09:40;9.97;65.17
76102;SHT30;64830;46.910;6.354;2023-04-24T12:12:07;9.86;66.11
76102;SHT30;64830;46.910;6.354;2023-04-24T12:14:32;9.70;66.19
76102;SHT30;64830;46.910;6.354;2023-04-24T12:16:57;9.53;67.16
76102;SHT30;64830;46.910;6.354;2023-04-24T12:19:23;9.34;66.35
76102;SHT30;64830;46.910;6.354;2023-04-24T12:22:00;9.25;66.88
76102;SHT30;64830;46.910;6.354;2023-04-24T12:24:26;9.21;68.03
76102;SHT30;64830;46.910;6.354;2023-04-24T12:26:51;9.10;67.81
76102;SHT30;64830;46.910;6.354;2023-04-24T12:29:22;9.03;67.73
76102;SHT30;64830;46.910;6.354;2023-04-24T12:31:48;9.03;68.02
76102;SHT30;64830;46.910;6.354;2023-04-24T12:34:25;8.99;68.18
76102;SHT30;64830;46.910;6.354;2023-04-24T12:36:51;8.99;68.49
76102;SHT30;64830;46.910;6.354;2023-04-24T12:39:17;9.05;68.60
76102;SHT30;64830;46.910;6.354;2023-04-24T12:42:11;9.17;67.72
76102;SHT30;64830;46.910;6.354;2023-04-24T12:44:37;9.27;68.31
76102;SHT30;64830;46.910;6.354;2023-04-24T12:47:02;9.43;66.81
76102;SHT30;64830;46.910;6.354;2023-04-24T12:49:29;9.55;65.97
76102;SHT30;64830;46.910;6.354;2023-04-24T12:51:55;9.57;64.10
76102;SHT30;64830;46.910;6.354;2023-04-24T12:54:22;9.57;65.49
76102;SHT30;64830;46.910;6.354;2023-04-24T12:56:47;9.72;66.02
76102;SHT30;64830;46.910;6.354;2023-04-24T12:59:12;9.87;64.54
76102;SHT30;64830;46.910;6.354;2023-04-24T13:01:38;9.98;65.68
76102;SHT30;64830;46.910;6.354;2023-04-24T13:04:05;10.19;65.13
76102;SHT30;64830;46.910;6.354;2023-04-24T13:06:30;10.36;65.79
76102;SHT30;64830;46.910;6.354;2023-04-24T13:08:56;10.50;64.85
76102;SHT30;64830;46.910;6.354;2023-04-24T13:11:23;10.46;62.24
76102;SHT30;64830;46.910;6.354;2023-04-24T13:13:48;10.39;62.57
76102;SHT30;64830;46.910;6.354;2023-04-24T13:16:14;10.24;61.78
76102;SHT30;64830;46.910;6.354;2023-04-24T13:18:39;10.01;62.38
76102;SHT30;64830;46.910;6.354;2023-04-24T13:21:05;9.95;63.95
76102;SHT30;64830;46.910;6.354;2023-04-24T13:23:30;9.94;64.06
76102;SHT30;64830;46.910;6.354;2023-04-24T13:25:55;9.94;65.10
76102;SHT30;64830;46.910;6.354;2023-04-24T13:28:24;9.79;65.71
76102;SHT30;64830;46.910;6.354;2023-04-24T13:30:50;9.63;66.94
76102;SHT30;64830;46.910;6.354;2023-04-24T13:33:16;9.62;68.04
76102;SHT30;64830;46.910;6.354;2023-04-24T13:35:41;9.70;67.18
76102;SHT30;64830;46.910;6.354;2023-04-24T13:38:06;9.74;66.38
76102;SHT30;64830;46.910;6.354;2023-04-24T13:40:32;9.86;66.75
76102;SHT30;64830;46.910;6.354;2023-04-24T13:42:58;9.91;65.35
76102;SHT30;64830;46.910;6.354;2023-04-24T13:45:23;10.02;63.93
76102;SHT30;64830;46.910;6.354;2023-04-24T13:47:48;10.10;63.09
76102;SHT30;64830;46.910;6.354;2023-04-24T13:50:14;10.12;62.85
76102;SHT30;64830;46.910;6.354;2023-04-24T13:52:40;10.17;62.20
76102;SHT30;64830;46.910;6.354;2023-04-24T13:55:06;10.19;63.49
76102;SHT30;64830;46.910;6.354;2023-04-24T13:57:31;10.14;63.12
76102;SHT30;64830;46.910;6.354;2023-04-24T13:59:58;10.08;63.94
76102;SHT30;64830;46.910;6.354;2023-04-24T14:02:26;10.05;64.12
76102;SHT30;64830;46.910;6.354;2023-04-24T14:04:52;10.14;61.54
76102;SHT30;64830;46.910;6.354;2023-04-24T14:07:17;10.11;61.89
76102;SHT30;64830;46.910;6.354;2023-04-24T14:09:43;10.19;61.96
76102;SHT30;64830;46.910;6.354;2023-04-24T14:12:08;10.32;62.63
76102;SHT30;64830;46.910;6.354;2023-04-24T14:14:33;10.38;61.52
76102;SHT30;64830;46.910;6.354;2023-04-24T14:16:59;10.36;61.21
76102;SHT30;64830;46.910;6.354;2023-04-24T14:19:25;10.39;61.47
76102;SHT30;64830;46.910;6.354;2023-04-24T14:21:50;10.41;61.33
76102;SHT30;64830;46.910;6.354;2023-04-24T14:24:15;10.49;61.14
76102;SHT30;64830;46.910;6.354;2023-04-24T14:26:41;10.44;59.94
76102;SHT30;64830;46.910;6.354;2023-04-24T14:29:06;10.35;60.90
76102;SHT30;64830;46.910;6.354;2023-04-24T14:31:32;10.32;61.46
76102;SHT30;64830;46.910;6.354;2023-04-24T14:33:57;10.28;62.01
76102;SHT30;64830;46.910;6.354;2023-04-24T14:36:22;10.19;62.57
76102;SHT30;64830;46.910;6.354;2023-04-24T14:38:49;10.14;63.71
76102;SHT30;64830;46.910;6.354;2023-04-24T14:41:14;10.04;63.19
76102;SHT30;64830;46.910;6.354;2023-04-24T14:43:40;10.00;64.03
76102;SHT30;64830;46.910;6.354;2023-04-24T14:46:05;10.02;63.87
76102;SHT30;64830;46.910;6.354;2023-04-24T14:48:31;10.05;62.86
76102;SHT30;64830;46.910;6.354;2023-04-24T14:50:56;10.08;62.97
76102;SHT30;64830;46.910;6.354;2023-04-24T14:53:22;10.14;62.73
76102;SHT30;64830;46.910;6.354;2023-04-24T14:55:47;10.22;63.70
76102;SHT30;64830;46.910;6.354;2023-04-24T14:58:13;10.29;61.72
76102;SHT30;64830;46.910;6.354;2023-04-24T15:00:38;10.28;61.21
76102;SHT30;64830;46.910;6.354;2023-04-24T15:03:04;10.27;61.25
76102;SHT30;64830;46.910;6.354;2023-04-24T15:05:29;10.27;60.66
76102;SHT30;64830;46.910;6.354;2023-04-24T15:07:55;10.27;60.81
76102;SHT30;64830;46.910;6.354;2023-04-24T15:10:21;10.17;60.07
76102;SHT30;64830;46.910;6.354;2023-04-24T15:12:48;10.15;60.08
76102;SHT30;64830;46.910;6.354;2023-04-24T15:15:14;10.12;59.25
76102;SHT30;64830;46.910;6.354;2023-04-24T15:17:40;10.10;60.62
76102;SHT30;64830;46.910;6.354;2023-04-24T15:20:06;10.10;60.17
76102;SHT30;64830;46.910;6.354;2023-04-24T15:22:32;10.07;61.22
76102;SHT30;64830;46.910;6.354;2023-04-24T15:24:57;10.12;60.57
76102;SHT30;64830;46.910;6.354;2023-04-24T15:27:23;10.08;60.42
76102;SHT30;64830;46.910;6.354;2023-04-24T15:29:48;10.00;60.46
76102;SHT30;64830;46.910;6.354;2023-04-24T15:32:14;9.97;60.51
76102;SHT30;64830;46.910;6.354;2023-04-24T15:34:39;9.97;61.31
76102;SHT30;64830;46.910;6.354;2023-04-24T15:37:06;9.93;59.87
76102;SHT30;64830;46.910;6.354;2023-04-24T15:39:31;9.91;59.42
76102;SHT30;64830;46.910;6.354;2023-04-24T15:41:57;9.86;60.42
76102;SHT30;64830;46.910;6.354;2023-04-24T15:44:22;9.77;60.38
76102;SHT30;64830;46.910;6.354;2023-04-24T15:46:48;9.76;61.32
76102;SHT30;64830;46.910;6.354;2023-04-24T15:49:13;9.79;60.91
76102;SHT30;64830;46.910;6.354;2023-04-24T15:51:39;9.80;61.09